Dungeness, Washington
Current Conditions -  °F | °C
As of 10:53 AM on Tuesday 21 Oct 2014 (Local Time) from KCLM Reporting Station
Broken Clouds Broken Clouds  
Wind Chill: 60°   Ceiling: 11000
Heat Index: 60°   Visibility: 10mi
Dew Point: 48°   Wind: 0mph
Humidity: 64%   Direction: NA
Pressure: 29.84"   Gusts: NA
Location:  48.0015°N, 123.09°W
Report Text: KCLM 211753Z AUTO 00000KT 10SM SCT070 BKN110 16/09 A2984 RMK AO2 RAB47E49 SLP105 P0000 60002 T01560089 10156 20089 51012 TSNO $
Loading
Personal Weather Stations






























Interactive Weather Map
Tropical Storm Tracking
New forecast layout! Learn more

10-Day Weather Forecast

Advertisements
Track Severe Weather on mobile